sensor_id;sensor_type;location;lat;lon;timestamp;pressure;altitude;pressure_sealevel;temperature;humidity
10310;BME280;5200;43.236;27.986;2023-05-15T00:01:57;100372.78;;;12.49;100.00
10310;BME280;5200;43.236;27.986;2023-05-15T00:04:24;100353.88;;;12.34;100.00
10310;BME280;5200;43.236;27.986;2023-05-15T00:06:52;100377.34;;;12.47;100.00
10310;BME280;5200;43.236;27.986;2023-05-15T00:09:19;100388.75;;;12.47;100.00
10310;BME280;5200;43.236;27.986;2023-05-15T00:11:46;100349.72;;;12.22;100.00
10310;BME280;5200;43.236;27.986;2023-05-15T00:14:12;100361.56;;;12.27;100.00
10310;BME280;5200;43.236;27.986;2023-05-15T00:16:40;100360.03;;;12.35;100.00
10310;BME280;5200;43.236;27.986;2023-05-15T00:19:07;100356.00;;;12.31;100.00
10310;BME280;5200;43.236;27.986;2023-05-15T00:21:33;100358.91;;;12.27;100.00
10310;BME280;5200;43.236;27.986;2023-05-15T00:24:02;100374.03;;;12.35;100.00
10310;BME280;5200;43.236;27.986;2023-05-15T00:26:29;100377.22;;;12.39;100.00
10310;BME280;5200;43.236;27.986;2023-05-15T00:28:56;100365.28;;;12.35;100.00
10310;BME280;5200;43.236;27.986;2023-05-15T00:31:23;100366.13;;;12.35;100.00
10310;BME280;5200;43.236;27.986;2023-05-15T00:33:50;100385.72;;;12.33;100.00
10310;BME280;5200;43.236;27.986;2023-05-15T00:36:17;100362.94;;;12.22;100.00
10310;BME280;5200;43.236;27.986;2023-05-15T00:38:46;100373.22;;;12.35;100.00
10310;BME280;5200;43.236;27.986;2023-05-15T00:41:14;100366.25;;;12.34;100.00
10310;BME280;5200;43.236;27.986;2023-05-15T00:43:43;100360.44;;;12.30;100.00
10310;BME280;5200;43.236;27.986;2023-05-15T00:46:12;100366.25;;;12.34;100.00
10310;BME280;5200;43.236;27.986;2023-05-15T00:48:40;100336.69;;;12.11;100.00
10310;BME280;5200;43.236;27.986;2023-05-15T00:51:07;100343.34;;;12.15;100.00
10310;BME280;5200;43.236;27.986;2023-05-15T00:53:35;100362.38;;;12.28;100.00
10310;BME280;5200;43.236;27.986;2023-05-15T00:56:05;100339.72;;;12.16;100.00
10310;BME280;5200;43.236;27.986;2023-05-15T00:58:36;100347.22;;;12.20;100.00
10310;BME280;5200;43.236;27.986;2023-05-15T01:01:04;100380.13;;;12.36;100.00
10310;BME280;5200;43.236;27.986;2023-05-15T01:03:31;100382.50;;;12.39;100.00
10310;BME280;5200;43.236;27.986;2023-05-15T01:05:58;100365.56;;;12.32;100.00
10310;BME280;5200;43.236;27.986;2023-05-15T01:08:26;100371.81;;;12.40;100.00
10310;BME280;5200;43.236;27.986;2023-05-15T01:10:58;100370.00;;;12.41;100.00
10310;BME280;5200;43.236;27.986;2023-05-15T01:13:25;100361.25;;;12.40;100.00
10310;BME280;5200;43.236;27.986;2023-05-15T01:15:54;100363.75;;;12.42;100.00
10310;BME280;5200;43.236;27.986;2023-05-15T01:18:20;100361.13;;;12.42;100.00
10310;BME280;5200;43.236;27.986;2023-05-15T01:20:58;100358.19;;;12.45;100.00
10310;BME280;5200;43.236;27.986;2023-05-15T01:23:38;100349.28;;;12.46;100.00
10310;BME280;5200;43.236;27.986;2023-05-15T01:29:07;100350.97;;;12.47;100.00
10310;BME280;5200;43.236;27.986;2023-05-15T01:31:38;100332.94;;;12.33;100.00
10310;BME280;5200;43.236;27.986;2023-05-15T01:34:08;100344.00;;;12.46;100.00
10310;BME280;5200;43.236;27.986;2023-05-15T01:36:40;100325.16;;;12.31;100.00
10310;BME280;5200;43.236;27.986;2023-05-15T01:39:10;100347.09;;;12.51;100.00
10310;BME280;5200;43.236;27.986;2023-05-15T01:41:41;100302.09;;;12.33;100.00
10310;BME280;5200;43.236;27.986;2023-05-15T01:44:14;100326.53;;;12.45;100.00
10310;BME280;5200;43.236;27.986;2023-05-15T01:46:45;100304.59;;;12.35;100.00
10310;BME280;5200;43.236;27.986;2023-05-15T01:49:17;100307.34;;;12.43;100.00
10310;BME280;5200;43.236;27.986;2023-05-15T01:51:48;100305.53;;;12.43;100.00
10310;BME280;5200;43.236;27.986;2023-05-15T01:54:17;100266.59;;;12.27;100.00
10310;BME280;5200;43.236;27.986;2023-05-15T01:56:45;100285.72;;;12.39;100.00
10310;BME280;5200;43.236;27.986;2023-05-15T01:59:14;100278.34;;;12.33;100.00
10310;BME280;5200;43.236;27.986;2023-05-15T02:01:43;100264.50;;;12.21;100.00
10310;BME280;5200;43.236;27.986;2023-05-15T02:04:11;100282.13;;;12.31;100.00
10310;BME280;5200;43.236;27.986;2023-05-15T02:06:39;100275.19;;;12.20;100.00
10310;BME280;5200;43.236;27.986;2023-05-15T02:09:06;100288.78;;;12.35;100.00
10310;BME280;5200;43.236;27.986;2023-05-15T02:11:35;100281.53;;;12.37;100.00
10310;BME280;5200;43.236;27.986;2023-05-15T02:14:03;100282.53;;;12.36;100.00
10310;BME280;5200;43.236;27.986;2023-05-15T02:16:31;100258.81;;;12.16;100.00
10310;BME280;5200;43.236;27.986;2023-05-15T02:18:58;100284.59;;;12.32;100.00
10310;BME280;5200;43.236;27.986;2023-05-15T02:21:25;100274.72;;;12.34;100.00
10310;BME280;5200;43.236;27.986;2023-05-15T02:23:52;100280.88;;;12.35;100.00
10310;BME280;5200;43.236;27.986;2023-05-15T02:26:26;100283.78;;;12.32;100.00
10310;BME280;5200;43.236;27.986;2023-05-15T02:29:03;100271.00;;;12.27;100.00
10310;BME280;5200;43.236;27.986;2023-05-15T02:31:38;100279.31;;;12.32;100.00
10310;BME280;5200;43.236;27.986;2023-05-15T02:34:12;100280.31;;;12.31;100.00
10310;BME280;5200;43.236;27.986;2023-05-15T02:36:43;100281.28;;;12.30;100.00
10310;BME280;5200;43.236;27.986;2023-05-15T02:39:14;100273.50;;;12.29;100.00
10310;BME280;5200;43.236;27.986;2023-05-15T02:41:42;100284.59;;;12.32;100.00
10310;BME280;5200;43.236;27.986;2023-05-15T02:44:11;100280.16;;;12.33;100.00
10310;BME280;5200;43.236;27.986;2023-05-15T02:46:40;100263.78;;;12.29;100.00
10310;BME280;5200;43.236;27.986;2023-05-15T02:49:08;100266.13;;;12.32;100.00
10310;BME280;5200;43.236;27.986;2023-05-15T02:51:35;100264.88;;;12.36;100.00
10310;BME280;5200;43.236;27.986;2023-05-15T02:54:03;100266.81;;;12.34;100.00
10310;BME280;5200;43.236;27.986;2023-05-15T02:56:30;100246.31;;;12.18;100.00
10310;BME280;5200;43.236;27.986;2023-05-15T02:58:57;100249.91;;;12.17;100.00
10310;BME280;5200;43.236;27.986;2023-05-15T03:01:24;100273.91;;;12.34;100.00
10310;BME280;5200;43.236;27.986;2023-05-15T03:03:53;100251.31;;;12.21;100.00
10310;BME280;5200;43.236;27.986;2023-05-15T03:06:19;100246.31;;;12.18;100.00
10310;BME280;5200;43.236;27.986;2023-05-15T03:08:46;100270.44;;;12.33;100.00
10310;BME280;5200;43.236;27.986;2023-05-15T03:11:13;100247.69;;;12.22;100.00
10310;BME280;5200;43.236;27.986;2023-05-15T03:13:40;100267.38;;;12.38;100.00
10310;BME280;5200;43.236;27.986;2023-05-15T03:16:07;100232.72;;;12.23;100.00
10310;BME280;5200;43.236;27.986;2023-05-15T03:18:34;100266.25;;;12.40;100.00
10310;BME280;5200;43.236;27.986;2023-05-15T03:21:02;100265.13;;;12.43;100.00
10310;BME280;5200;43.236;27.986;2023-05-15T03:23:29;100263.19;;;12.45;100.00
10310;BME280;5200;43.236;27.986;2023-05-15T03:25:56;100257.91;;;12.45;100.00
10310;BME280;5200;43.236;27.986;2023-05-15T03:28:23;100255.97;;;12.47;100.00
10310;BME280;5200;43.236;27.986;2023-05-15T03:30:50;100241.25;;;12.44;100.00
10310;BME280;5200;43.236;27.986;2023-05-15T03:33:17;100250.38;;;12.50;100.00
10310;BME280;5200;43.236;27.986;2023-05-15T03:35:43;100254.41;;;12.54;100.00
10310;BME280;5200;43.236;27.986;2023-05-15T03:38:12;100261.34;;;12.55;100.00
10310;BME280;5200;43.236;27.986;2023-05-15T03:40:38;100245.94;;;12.51;100.00
10310;BME280;5200;43.236;27.986;2023-05-15T03:43:05;100229.56;;;12.47;100.00
10310;BME280;5200;43.236;27.986;2023-05-15T03:45:32;100241.91;;;12.56;100.00
10310;BME280;5200;43.236;27.986;2023-05-15T03:47:59;100253.63;;;12.72;100.00
10310;BME280;5200;43.236;27.986;2023-05-15T03:50:26;100229.09;;;12.61;100.00
10310;BME280;5200;43.236;27.986;2023-05-15T03:52:53;100244.47;;;12.76;100.00
10310;BME280;5200;43.236;27.986;2023-05-15T03:55:21;100236.97;;;12.71;100.00
10310;BME280;5200;43.236;27.986;2023-05-15T03:57:48;100255.66;;;12.87;100.00
10310;BME280;5200;43.236;27.986;2023-05-15T04:00:18;100269.25;;;12.93;100.00
10310;BME280;5200;43.236;27.986;2023-05-15T04:02:45;100269.50;;;12.99;100.00
10310;BME280;5200;43.236;27.986;2023-05-15T04:05:11;100263.53;;;12.97;100.00
10310;BME280;5200;43.236;27.986;2023-05-15T04:07:38;100244.97;;;12.89;100.00
10310;BME280;5200;43.236;27.986;2023-05-15T04:10:06;100246.63;;;12.90;100.00
10310;BME280;5200;43.236;27.986;2023-05-15T04:12:35;100271.50;;;13.15;100.00
10310;BME280;5200;43.236;27.986;2023-05-15T04:15:15;100279.13;;;13.18;100.00
10310;BME280;5200;43.236;27.986;2023-05-15T04:17:42;100262.91;;;13.13;100.00
10310;BME280;5200;43.236;27.986;2023-05-15T04:20:10;100266.06;;;13.17;100.00
10310;BME280;5200;43.236;27.986;2023-05-15T04:22:38;100265.88;;;13.28;100.00
10310;BME280;5200;43.236;27.986;2023-05-15T04:25:05;100276.06;;;13.50;100.00
10310;BME280;5200;43.236;27.986;2023-05-15T04:27:35;100259.66;;;13.47;100.00
10310;BME280;5200;43.236;27.986;2023-05-15T04:30:02;100257.16;;;13.45;100.00
10310;BME280;5200;43.236;27.986;2023-05-15T04:32:29;100256.03;;;13.48;100.00
10310;BME280;5200;43.236;27.986;2023-05-15T04:35:00;100257.53;;;13.50;100.00
10310;BME280;5200;43.236;27.986;2023-05-15T04:37:27;100280.81;;;13.65;100.00
10310;BME280;5200;43.236;27.986;2023-05-15T04:39:53;100292.59;;;13.70;100.00
10310;BME280;5200;43.236;27.986;2023-05-15T04:42:20;100300.69;;;13.69;100.00
10310;BME280;5200;43.236;27.986;2023-05-15T04:44:48;100282.41;;;13.58;100.00
10310;BME280;5200;43.236;27.986;2023-05-15T04:47:15;100299.56;;;13.71;100.00
10310;BME280;5200;43.236;27.986;2023-05-15T04:49:42;100304.97;;;13.70;100.00
10310;BME280;5200;43.236;27.986;2023-05-15T04:52:09;100285.34;;;13.55;100.00
10310;BME280;5200;43.236;27.986;2023-05-15T04:54:36;100282.41;;;13.58;100.00
10310;BME280;5200;43.236;27.986;2023-05-15T04:57:03;100312.00;;;13.79;100.00
10310;BME280;5200;43.236;27.986;2023-05-15T04:59:30;100285.47;;;13.71;100.00
10310;BME280;5200;43.236;27.986;2023-05-15T05:02:00;100287.84;;;13.74;100.00
10310;BME280;5200;43.236;27.986;2023-05-15T05:04:27;100316.09;;;13.91;100.00
10310;BME280;5200;43.236;27.986;2023-05-15T05:06:54;100307.31;;;13.91;100.00
10310;BME280;5200;43.236;27.986;2023-05-15T05:09:21;100303.31;;;13.87;100.00
10310;BME280;5200;43.236;27.986;2023-05-15T05:11:48;100310.34;;;13.96;100.00
10310;BME280;5200;43.236;27.986;2023-05-15T05:14:15;100312.47;;;13.92;100.00
10310;BME280;5200;43.236;27.986;2023-05-15T05:16:43;100309.16;;;13.90;100.00
10310;BME280;5200;43.236;27.986;2023-05-15T05:19:12;100278.91;;;13.75;100.00
10310;BME280;5200;43.236;27.986;2023-05-15T05:21:38;100294.09;;;13.91;100.00
10310;BME280;5200;43.236;27.986;2023-05-15T05:24:05;100299.63;;;13.98;100.00
10310;BME280;5200;43.236;27.986;2023-05-15T05:26:32;100272.94;;;13.91;100.00
10310;BME280;5200;43.236;27.986;2023-05-15T05:28:59;100286.81;;;14.11;100.00
10310;BME280;5200;43.236;27.986;2023-05-15T05:31:26;100302.75;;;14.19;100.00
10310;BME280;5200;43.236;27.986;2023-05-15T05:33:53;100282.50;;;14.10;100.00
10310;BME280;5200;43.236;27.986;2023-05-15T05:36:21;100295.31;;;14.41;100.00
10310;BME280;5200;43.236;27.986;2023-05-15T05:38:48;100298.31;;;14.46;100.00
10310;BME280;5200;43.236;27.986;2023-05-15T05:41:15;100279.88;;;14.54;100.00
10310;BME280;5200;43.236;27.986;2023-05-15T05:43:41;100252.41;;;14.55;100.00
10310;BME280;5200;43.236;27.986;2023-05-15T05:46:09;100281.81;;;14.78;100.00
10310;BME280;5200;43.236;27.986;2023-05-15T05:48:35;100292.28;;;14.88;100.00
10310;BME280;5200;43.236;27.986;2023-05-15T05:51:03;100294.31;;;14.94;100.00
10310;BME280;5200;43.236;27.986;2023-05-15T05:53:31;100268.50;;;14.96;100.00
10310;BME280;5200;43.236;27.986;2023-05-15T05:55:57;100301.69;;;15.16;100.00
10310;BME280;5200;43.236;27.986;2023-05-15T05:58:25;100274.16;;;15.09;100.00
10310;BME280;5200;43.236;27.986;2023-05-15T06:00:52;100298.00;;;15.09;100.00
10310;BME280;5200;43.236;27.986;2023-05-15T06:03:19;100274.81;;;15.03;100.00
10310;BME280;5200;43.236;27.986;2023-05-15T06:05:46;100281.47;;;15.15;100.00
10310;BME280;5200;43.236;27.986;2023-05-15T06:08:13;100295.94;;;15.29;100.00
10310;BME280;5200;43.236;27.986;2023-05-15T06:10:44;100299.13;;;15.41;100.00
10310;BME280;5200;43.236;27.986;2023-05-15T06:13:11;100272.91;;;15.38;100.00
10310;BME280;5200;43.236;27.986;2023-05-15T06:15:39;100289.56;;;15.64;100.00
10310;BME280;5200;43.236;27.986;2023-05-15T06:18:06;100285.59;;;15.69;100.00
10310;BME280;5200;43.236;27.986;2023-05-15T06:20:33;100304.53;;;15.90;100.00
10310;BME280;5200;43.236;27.986;2023-05-15T06:23:00;100293.41;;;15.78;100.00
10310;BME280;5200;43.236;27.986;2023-05-15T06:25:27;100281.97;;;16.02;100.00
10310;BME280;5200;43.236;27.986;2023-05-15T06:27:56;100292.66;;;16.66;100.00
10310;BME280;5200;43.236;27.986;2023-05-15T06:30:23;100290.50;;;16.86;100.00
10310;BME280;5200;43.236;27.986;2023-05-15T06:32:50;100299.38;;;16.38;100.00
10310;BME280;5200;43.236;27.986;2023-05-15T06:35:17;100276.31;;;16.30;100.00
10310;BME280;5200;43.236;27.986;2023-05-15T06:37:44;100262.69;;;16.33;100.00
10310;BME280;5200;43.236;27.986;2023-05-15T06:40:14;100279.84;;;16.78;100.00
10310;BME280;5200;43.236;27.986;2023-05-15T06:42:51;100268.66;;;17.30;100.00
10310;BME280;5200;43.236;27.986;2023-05-15T06:48:53;100257.69;;;17.88;100.00
10310;BME280;5200;43.236;27.986;2023-05-15T06:51:27;100287.38;;;18.00;100.00
10310;BME280;5200;43.236;27.986;2023-05-15T06:54:07;100280.31;;;18.07;100.00
10310;BME280;5200;43.236;27.986;2023-05-15T07:00:17;100280.44;;;18.28;80.11
10310;BME280;5200;43.236;27.986;2023-05-15T07:02:48;100263.44;;;18.14;73.06
10310;BME280;5200;43.236;27.986;2023-05-15T07:05:18;100235.72;;;17.86;67.30
10310;BME280;5200;43.236;27.986;2023-05-15T07:07:46;100272.88;;;18.02;67.93
10310;BME280;5200;43.236;27.986;2023-05-15T07:10:20;100239.56;;;18.06;73.89
10310;BME280;5200;43.236;27.986;2023-05-15T07:12:47;100247.72;;;18.20;85.64
10310;BME280;5200;43.236;27.986;2023-05-15T07:15:14;100222.75;;;18.50;78.60
10310;BME280;5200;43.236;27.986;2023-05-15T07:17:42;100238.22;;;18.25;81.83
10310;BME280;5200;43.236;27.986;2023-05-15T07:20:09;100242.59;;;18.18;83.39
10310;BME280;5200;43.236;27.986;2023-05-15T07:22:39;100216.69;;;18.27;78.94
10310;BME280;5200;43.236;27.986;2023-05-15T07:25:07;100238.41;;;18.53;73.79
10310;BME280;5200;43.236;27.986;2023-05-15T07:27:34;100191.25;;;18.09;73.78
10310;BME280;5200;43.236;27.986;2023-05-15T07:30:01;100261.31;;;18.10;80.74
10310;BME280;5200;43.236;27.986;2023-05-15T07:32:28;100253.53;;;17.62;84.56
10310;BME280;5200;43.236;27.986;2023-05-15T07:34:56;100242.50;;;17.65;87.22
10310;BME280;5200;43.236;27.986;2023-05-15T07:37:23;100245.00;;;17.44;84.74
10310;BME280;5200;43.236;27.986;2023-05-15T07:39:52;100280.66;;;17.58;87.60
10310;BME280;5200;43.236;27.986;2023-05-15T07:42:20;100269.13;;;17.65;83.09
10310;BME280;5200;43.236;27.986;2023-05-15T07:44:52;100232.13;;;17.56;75.03
10310;BME280;5200;43.236;27.986;2023-05-15T07:47:19;100263.09;;;17.71;72.65
10310;BME280;5200;43.236;27.986;2023-05-15T07:49:46;100259.59;;;17.94;76.51
10310;BME280;5200;43.236;27.986;2023-05-15T07:52:13;100264.34;;;18.22;75.66
10310;BME280;5200;43.236;27.986;2023-05-15T07:54:39;100257.50;;;18.27;70.56
10310;BME280;5200;43.236;27.986;2023-05-15T07:57:08;100259.84;;;17.84;72.25
10310;BME280;5200;43.236;27.986;2023-05-15T07:59:37;100253.56;;;17.77;69.05
10310;BME280;5200;43.236;27.986;2023-05-15T08:02:04;100252.91;;;17.98;67.88
10310;BME280;5200;43.236;27.986;2023-05-15T08:04:30;100233.06;;;18.24;66.44
10310;BME280;5200;43.236;27.986;2023-05-15T08:06:57;100231.78;;;18.34;63.25
10310;BME280;5200;43.236;27.986;2023-05-15T08:09:24;100233.53;;;18.42;60.75
10310;BME280;5200;43.236;27.986;2023-05-15T08:11:54;100197.94;;;18.05;61.38
10310;BME280;5200;43.236;27.986;2023-05-15T08:14:23;100255.56;;;18.36;62.87
10310;BME280;5200;43.236;27.986;2023-05-15T08:16:49;100235.16;;;18.43;60.60
10310;BME280;5200;43.236;27.986;2023-05-15T08:19:16;100247.94;;;18.18;67.82
10310;BME280;5200;43.236;27.986;2023-05-15T08:21:43;100264.56;;;17.74;67.41
10310;BME280;5200;43.236;27.986;2023-05-15T08:24:10;100260.63;;;17.93;67.14
10310;BME280;5200;43.236;27.986;2023-05-15T08:26:37;100263.06;;;18.17;65.25
10310;BME280;5200;43.236;27.986;2023-05-15T08:29:04;100242.09;;;18.00;64.42
10310;BME280;5200;43.236;27.986;2023-05-15T08:31:32;100250.34;;;17.90;63.56
10310;BME280;5200;43.236;27.986;2023-05-15T08:33:59;100249.03;;;18.24;65.13
10310;BME280;5200;43.236;27.986;2023-05-15T08:36:26;100259.19;;;18.05;60.99
10310;BME280;5200;43.236;27.986;2023-05-15T08:38:52;100248.25;;;17.54;60.07
10310;BME280;5200;43.236;27.986;2023-05-15T08:41:32;100248.38;;;17.61;63.14
10310;BME280;5200;43.236;27.986;2023-05-15T08:44:04;100255.88;;;17.57;63.54
10310;BME280;5200;43.236;27.986;2023-05-15T08:46:34;100227.72;;;17.63;61.40
10310;BME280;5200;43.236;27.986;2023-05-15T08:49:02;100239.19;;;18.09;59.37
10310;BME280;5200;43.236;27.986;2023-05-15T08:51:34;100225.91;;;18.39;56.33
10310;BME280;5200;43.236;27.986;2023-05-15T08:54:01;100235.63;;;18.62;58.84
10310;BME280;5200;43.236;27.986;2023-05-15T08:56:28;100220.03;;;18.58;53.72
10310;BME280;5200;43.236;27.986;2023-05-15T08:58:55;100234.81;;;18.46;50.93
10310;BME280;5200;43.236;27.986;2023-05-15T09:01:22;100227.63;;;18.32;55.32
10310;BME280;5200;43.236;27.986;2023-05-15T09:03:50;100223.03;;;18.55;55.47
10310;BME280;5200;43.236;27.986;2023-05-15T09:06:17;100222.69;;;18.29;63.86
10310;BME280;5200;43.236;27.986;2023-05-15T09:08:45;100217.16;;;18.15;64.54
10310;BME280;5200;43.236;27.986;2023-05-15T09:11:12;100210.09;;;18.37;55.42
10310;BME280;5200;43.236;27.986;2023-05-15T09:13:39;100209.91;;;18.54;57.20
10310;BME280;5200;43.236;27.986;2023-05-15T09:16:06;100209.47;;;18.21;56.65
10310;BME280;5200;43.236;27.986;2023-05-15T09:18:33;100216.19;;;17.70;59.24
10310;BME280;5200;43.236;27.986;2023-05-15T09:21:22;100230.81;;;17.98;53.71
10310;BME280;5200;43.236;27.986;2023-05-15T09:23:50;100228.50;;;17.94;52.61
10310;BME280;5200;43.236;27.986;2023-05-15T09:26:17;100220.59;;;17.86;52.16
10310;BME280;5200;43.236;27.986;2023-05-15T09:28:45;100215.69;;;17.52;54.97
10310;BME280;5200;43.236;27.986;2023-05-15T09:31:12;100234.47;;;17.27;57.87
10310;BME280;5200;43.236;27.986;2023-05-15T09:33:39;100228.44;;;17.33;63.83
10310;BME280;5200;43.236;27.986;2023-05-15T09:36:07;100224.66;;;17.51;63.25
10310;BME280;5200;43.236;27.986;2023-05-15T09:38:41;100230.22;;;17.64;63.78
10310;BME280;5200;43.236;27.986;2023-05-15T09:41:28;100222.28;;;17.56;63.17
10310;BME280;5200;43.236;27.986;2023-05-15T09:43:56;100219.34;;;17.74;61.93
10310;BME280;5200;43.236;27.986;2023-05-15T09:46:23;100224.75;;;18.04;59.90
10310;BME280;5200;43.236;27.986;2023-05-15T09:48:53;100202.94;;;18.23;59.13
10310;BME280;5200;43.236;27.986;2023-05-15T09:51:20;100194.41;;;18.28;55.65
10310;BME280;5200;43.236;27.986;2023-05-15T09:53:50;100206.06;;;18.42;54.48
10310;BME280;5200;43.236;27.986;2023-05-15T09:56:17;100201.00;;;18.62;54.10
10310;BME280;5200;43.236;27.986;2023-05-15T09:58:54;100205.94;;;18.65;49.25
10310;BME280;5200;43.236;27.986;2023-05-15T10:01:22;100202.44;;;17.90;52.31
10310;BME280;5200;43.236;27.986;2023-05-15T10:03:56;100194.75;;;18.25;52.44
10310;BME280;5200;43.236;27.986;2023-05-15T10:06:24;100185.97;;;18.39;47.10
10310;BME280;5200;43.236;27.986;2023-05-15T10:08:53;100187.03;;;18.00;48.28
10310;BME280;5200;43.236;27.986;2023-05-15T10:11:20;100188.22;;;18.12;48.62
10310;BME280;5200;43.236;27.986;2023-05-15T10:13:48;100187.56;;;18.10;44.09
10310;BME280;5200;43.236;27.986;2023-05-15T10:16:17;100174.38;;;18.02;48.31
10310;BME280;5200;43.236;27.986;2023-05-15T10:18:46;100189.84;;;17.99;48.62
10310;BME280;5200;43.236;27.986;2023-05-15T10:21:15;100194.94;;;18.23;56.57
10310;BME280;5200;43.236;27.986;2023-05-15T10:23:42;100189.91;;;18.13;56.18
10310;BME280;5200;43.236;27.986;2023-05-15T10:26:19;100190.53;;;18.30;54.56
10310;BME280;5200;43.236;27.986;2023-05-15T10:28:47;100191.09;;;18.26;56.79
10310;BME280;5200;43.236;27.986;2023-05-15T10:31:17;100184.63;;;18.05;61.62
10310;BME280;5200;43.236;27.986;2023-05-15T10:33:44;100179.47;;;17.89;57.81
10310;BME280;5200;43.236;27.986;2023-05-15T10:36:12;100183.88;;;17.82;63.15
10310;BME280;5200;43.236;27.986;2023-05-15T10:38:41;100178.13;;;17.01;66.77
10310;BME280;5200;43.236;27.986;2023-05-15T10:41:10;100174.84;;;17.22;67.56
10310;BME280;5200;43.236;27.986;2023-05-15T10:43:39;100200.47;;;17.38;66.13
10310;BME280;5200;43.236;27.986;2023-05-15T10:46:08;100190.97;;;17.66;68.04
10310;BME280;5200;43.236;27.986;2023-05-15T10:48:36;100193.91;;;17.94;64.54
10310;BME280;5200;43.236;27.986;2023-05-15T10:51:03;100189.16;;;18.20;62.58
10310;BME280;5200;43.236;27.986;2023-05-15T10:53:31;100194.03;;;18.61;62.58
10310;BME280;5200;43.236;27.986;2023-05-15T10:55:58;100188.78;;;18.67;60.82
10310;BME280;5200;43.236;27.986;2023-05-15T10:58:25;100179.97;;;18.37;61.97
10310;BME280;5200;43.236;27.986;2023-05-15T11:00:53;100179.63;;;18.25;61.41
10310;BME280;5200;43.236;27.986;2023-05-15T11:03:34;100181.41;;;17.95;63.42
10310;BME280;5200;43.236;27.986;2023-05-15T11:06:09;100184.75;;;18.27;60.81
10310;BME280;5200;43.236;27.986;2023-05-15T11:08:37;100189.25;;;18.41;58.91
10310;BME280;5200;43.236;27.986;2023-05-15T11:11:05;100172.81;;;18.23;57.91
10310;BME280;5200;43.236;27.986;2023-05-15T11:17:00;100172.50;;;17.65;66.57
10310;BME280;5200;43.236;27.986;2023-05-15T11:19:33;100173.19;;;17.44;66.03
10310;BME280;5200;43.236;27.986;2023-05-15T11:22:02;100176.63;;;17.29;64.13
10310;BME280;5200;43.236;27.986;2023-05-15T11:24:48;100181.25;;;17.36;61.90
10310;BME280;5200;43.236;27.986;2023-05-15T11:27:17;100173.38;;;17.19;68.80
10310;BME280;5200;43.236;27.986;2023-05-15T11:30:02;100173.13;;;16.66;72.11
10310;BME280;5200;43.236;27.986;2023-05-15T11:32:47;100144.22;;;16.32;72.72
10310;BME280;5200;43.236;27.986;2023-05-15T11:35:18;100132.00;;;16.15;75.28
10310;BME280;5200;43.236;27.986;2023-05-15T11:37:47;100160.31;;;16.31;74.29
10310;BME280;5200;43.236;27.986;2023-05-15T11:40:19;100162.09;;;16.46;76.77
10310;BME280;5200;43.236;27.986;2023-05-15T11:43:03;100163.59;;;16.49;76.31
10310;BME280;5200;43.236;27.986;2023-05-15T11:45:32;100167.22;;;16.48;78.84
10310;BME280;5200;43.236;27.986;2023-05-15T11:48:02;100150.91;;;16.59;75.40
10310;BME280;5200;43.236;27.986;2023-05-15T11:50:30;100156.47;;;16.81;78.86
10310;BME280;5200;43.236;27.986;2023-05-15T11:53:01;100167.81;;;17.06;75.53
10310;BME280;5200;43.236;27.986;2023-05-15T11:55:30;100154.00;;;16.71;74.55
10310;BME280;5200;43.236;27.986;2023-05-15T11:57:57;100160.94;;;16.49;71.87
10310;BME280;5200;43.236;27.986;2023-05-15T12:00:24;100166.16;;;16.65;78.21
10310;BME280;5200;43.236;27.986;2023-05-15T12:02:51;100162.06;;;16.94;79.32
10310;BME280;5200;43.236;27.986;2023-05-15T12:05:19;100158.53;;;16.62;78.27
10310;BME280;5200;43.236;27.986;2023-05-15T12:07:46;100160.72;;;16.51;78.97
10310;BME280;5200;43.236;27.986;2023-05-15T12:10:13;100157.63;;;16.47;77.88
10310;BME280;5200;43.236;27.986;2023-05-15T12:12:40;100124.28;;;16.36;78.55
10310;BME280;5200;43.236;27.986;2023-05-15T12:15:09;100121.84;;;16.26;80.36
10310;BME280;5200;43.236;27.986;2023-05-15T12:17:37;100132.63;;;16.25;82.46
10310;BME280;5200;43.236;27.986;2023-05-15T12:20:07;100118.72;;;16.15;82.35
10310;BME280;5200;43.236;27.986;2023-05-15T12:22:37;100130.34;;;16.14;86.94
10310;BME280;5200;43.236;27.986;2023-05-15T12:25:05;100136.41;;;15.83;92.76
10310;BME280;5200;43.236;27.986;2023-05-15T12:27:33;100129.44;;;15.74;92.92
10310;BME280;5200;43.236;27.986;2023-05-15T12:30:01;100132.06;;;15.90;93.67
10310;BME280;5200;43.236;27.986;2023-05-15T12:32:30;100129.44;;;15.49;92.47
10310;BME280;5200;43.236;27.986;2023-05-15T12:34:58;100115.00;;;15.11;96.93
10310;BME280;5200;43.236;27.986;2023-05-15T12:37:26;100147.81;;;15.42;98.42
10310;BME280;5200;43.236;27.986;2023-05-15T12:39:56;100128.78;;;15.55;96.67
10310;BME280;5200;43.236;27.986;2023-05-15T12:42:25;100150.66;;;15.90;96.50
10310;BME280;5200;43.236;27.986;2023-05-15T12:44:54;100132.06;;;15.65;96.83
10310;BME280;5200;43.236;27.986;2023-05-15T12:47:22;100145.50;;;15.64;93.37
10310;BME280;5200;43.236;27.986;2023-05-15T12:49:49;100161.25;;;15.82;94.08
10310;BME280;5200;43.236;27.986;2023-05-15T12:52:16;100120.13;;;15.78;95.17
10310;BME280;5200;43.236;27.986;2023-05-15T12:54:43;100151.03;;;16.26;89.17
10310;BME280;5200;43.236;27.986;2023-05-15T12:57:13;100139.09;;;16.31;89.72
10310;BME280;5200;43.236;27.986;2023-05-15T12:59:40;100140.28;;;16.20;89.97
10310;BME280;5200;43.236;27.986;2023-05-15T13:02:08;100131.69;;;16.01;92.02
10310;BME280;5200;43.236;27.986;2023-05-15T13:04:36;100142.50;;;15.92;91.33
10310;BME280;5200;43.236;27.986;2023-05-15T13:07:03;100141.84;;;15.98;95.04